Main page
METAR-TAF:

METAR-TAF

Airports :

Curaçao International Airport

Curaçao, Netherlands Antilles

latitude: 12-12N, longitude: 068-58W, elevation: 9 m

Current weather observation

The report was made 55 minutes ago, at 06:00 UTC
Wind 11 kt from the East/Southeast
Temperature 27°C
Humidity 79%
Pressure 1011 hPa
Visibility 10 km or more
Scattered clouds at a height of 1700 ft

METAR: TNCC 100600Z 11011KT 9999 SCT017 27/23 Q1011 NOSIG

Time: 02:55 (06:55 UTC)

Forecast

The report was made 1 hour and 40 minutes ago, at 05:15 UTC
Forecast valid from 10 at 06 UTC to 11 at 06 UTC
Wind 14 kt from the East
Visibility 10 km or more
Scattered clouds at a height of 2000 ft

TAF: TNCC 100515Z 1006/1106 10014KT 9999 SCT020

Weather observations and forecasts of more than 4000 airports (METAR and TAF reports).

The available stations are represented by yellow and red dots on the map.

Hover mouse over dot to see the name of the station.

Then click to see weather observations and forecasts.

To change the map : click on the green buttons with a black cross to zoom in, on the green button with a dash to zoom out, or on the green arrows for adjacent maps.


METAR-TAF: